createdAt,value
2022-09-23T00:01:12.845Z,98680.94
2022-09-23T00:03:42.792Z,98678.38
2022-09-23T00:06:12.368Z,98675.41
2022-09-23T00:08:41.906Z,98677.28
2022-09-23T00:11:10.765Z,98679.72
2022-09-23T00:13:39.389Z,98677.72
2022-09-23T00:16:08.146Z,98678.88
2022-09-23T00:18:36.182Z,98682.22
2022-09-23T00:21:05.597Z,98677.97
2022-09-23T00:23:33.829Z,98675.81
2022-09-23T00:26:04.192Z,98676.31
2022-09-23T00:28:33.204Z,98678.09
2022-09-23T00:31:03.412Z,98681.78
2022-09-23T00:33:31.428Z,98680.31
2022-09-23T00:36:00.250Z,98674.31
2022-09-23T00:38:28.218Z,98675.31
2022-09-23T00:40:56.261Z,98678.38
2022-09-23T00:43:39.303Z,98680.97
2022-09-23T00:46:08.535Z,98688.06
2022-09-23T00:48:36.947Z,98681.34
2022-09-23T00:51:06.619Z,98679.19
2022-09-23T00:53:34.677Z,98674.69
2022-09-23T00:56:04.083Z,98675.94
2022-09-23T00:58:34.052Z,98677.53
2022-09-23T01:01:03.949Z,98684.34
2022-09-23T01:03:32.282Z,98677.94
2022-09-23T01:06:00.608Z,98684.13
2022-09-23T01:08:29.237Z,98682.66
2022-09-23T01:11:01.729Z,98683.75
2022-09-23T01:13:33.573Z,98683.44
2022-09-23T01:16:07.047Z,98678.63
2022-09-23T01:18:40.172Z,98671.13
2022-09-23T01:21:17.248Z,98681.19
2022-09-23T01:24:03.656Z,98676.34
2022-09-23T01:26:46.481Z,98677.63
2022-09-23T01:29:28.690Z,98675.75
2022-09-23T01:32:03.088Z,98678.13
2022-09-23T01:34:35.535Z,98678.69
2022-09-23T01:37:08.761Z,98682.75
2022-09-23T01:39:40.034Z,98683.94
2022-09-23T01:42:10.389Z,98688.06
2022-09-23T01:44:43.120Z,98687.44
2022-09-23T01:47:16.416Z,98685.88
2022-09-23T01:49:47.410Z,98689.03
2022-09-23T01:52:17.933Z,98686.09
2022-09-23T01:54:47.985Z,98688.53
2022-09-23T01:57:19.030Z,98689.84
2022-09-23T01:59:49.985Z,98690.91
2022-09-23T02:02:22.282Z,98691.41
2022-09-23T02:04:54.371Z,98691.63
2022-09-23T02:07:26.333Z,98694.78
2022-09-23T02:09:59.789Z,98693.19
2022-09-23T02:12:30.513Z,98695.94
2022-09-23T02:15:01.016Z,98694.88
2022-09-23T02:17:33.061Z,98691.91
2022-09-23T02:20:02.838Z,98689.72
2022-09-23T02:22:36.134Z,98696.13
2022-09-23T02:25:04.787Z,98696.94
2022-09-23T02:27:36.510Z,98695.88
2022-09-23T02:30:09.682Z,98691.63
2022-09-23T02:32:45.238Z,98694.28
2022-09-23T02:35:18.117Z,98690.53
2022-09-23T02:37:48.945Z,98695.88
2022-09-23T02:40:23.745Z,98694.78
2022-09-23T02:42:57.477Z,98691.03
2022-09-23T02:45:25.448Z,98691.03
2022-09-23T02:47:58.249Z,98693.97
2022-09-23T02:50:26.563Z,98692.41
2022-09-23T02:52:54.466Z,98686.28
2022-09-23T02:55:23.878Z,98692.41
2022-09-23T02:57:53.608Z,98692.19
2022-09-23T03:00:21.704Z,98689.53
2022-09-23T03:03:02.181Z,98690.63
2022-09-23T03:05:31.766Z,98690.03
2022-09-23T03:08:08.084Z,98687.06
2022-09-23T03:10:40.335Z,98698.53
2022-09-23T03:13:14.373Z,98697.16
2022-09-23T03:15:46.899Z,98693.41
2022-09-23T03:18:18.700Z,98697.34
2022-09-23T03:20:50.246Z,98695.47
2022-09-23T03:23:20.722Z,98696.25
2022-09-23T03:25:52.438Z,98696.56
2022-09-23T03:28:22.185Z,98695.19
2022-09-23T03:30:51.164Z,98686.91
2022-09-23T03:33:26.778Z,98696.75
2022-09-23T03:36:18.167Z,98699.94
2022-09-23T03:38:46.893Z,98699.16
2022-09-23T03:41:17.214Z,98691.34
2022-09-23T03:43:45.560Z,98687.59
2022-09-23T03:46:17.007Z,98688.59
2022-09-23T03:48:46.586Z,98690.66
2022-09-23T03:51:22.154Z,98694.00
2022-09-23T03:53:50.078Z,98692.06
2022-09-23T03:56:18.684Z,98690.97
2022-09-23T03:58:47.097Z,98698.94
2022-09-23T04:01:16.180Z,98675.28
2022-09-23T04:03:44.340Z,98681.69
2022-09-23T04:06:14.221Z,98681.88
2022-09-23T04:08:42.311Z,98678.03
2022-09-23T04:11:11.452Z,98674.28
2022-09-23T04:13:39.595Z,98671.13
2022-09-23T04:19:04.951Z,98668.38
2022-09-23T04:21:35.161Z,98681.31
2022-09-23T04:24:03.819Z,98675.66
2022-09-23T04:26:31.854Z,98670.25
2022-09-23T04:29:00.263Z,98666.28
2022-09-23T04:31:29.048Z,98655.03
2022-09-23T04:33:57.112Z,98652.38
2022-09-23T04:36:25.335Z,98655.63
2022-09-23T04:38:54.752Z,98645.09
2022-09-23T04:41:22.866Z,98652.38
2022-09-23T04:43:50.871Z,98654.66
2022-09-23T04:46:18.925Z,98638.28
2022-09-23T04:48:47.042Z,98642.03
2022-09-23T04:51:15.832Z,98642.72
2022-09-23T04:53:45.136Z,98637.97
2022-09-23T04:56:15.707Z,98640.66
2022-09-23T04:58:44.219Z,98650.41
2022-09-23T05:01:13.931Z,98651.09
2022-09-23T05:03:43.081Z,98647.72
2022-09-23T05:06:13.926Z,98643.69
2022-09-23T05:08:42.260Z,98655.53
2022-09-23T05:11:10.252Z,98661.84
2022-09-23T05:13:39.888Z,98658.06
2022-09-23T05:16:09.368Z,98660.59
2022-09-23T05:18:37.924Z,98659.69
2022-09-23T05:21:06.458Z,98660.34
2022-09-23T05:23:37.723Z,98657.75
2022-09-23T05:26:07.317Z,98653.69
2022-09-23T05:28:37.562Z,98664.72
2022-09-23T05:31:08.535Z,98657.81
2022-09-23T05:33:37.332Z,98663.63
2022-09-23T05:36:11.185Z,98655.53
2022-09-23T05:38:40.123Z,98663.66
2022-09-23T05:41:09.379Z,98662.47
2022-09-23T05:43:38.218Z,98670.56
2022-09-23T05:46:09.283Z,98664.66
2022-09-23T05:48:37.876Z,98665.91
2022-09-23T05:51:14.227Z,98660.41
2022-09-23T05:53:45.073Z,98659.03
2022-09-23T05:56:13.636Z,98661.75
2022-09-23T05:58:41.868Z,98661.78
2022-09-23T06:01:14.827Z,98654.38
2022-09-23T06:03:43.344Z,98666.00
2022-09-23T06:06:14.676Z,98668.69
2022-09-23T06:08:43.215Z,98666.34
2022-09-23T06:11:12.542Z,98665.09
2022-09-23T06:13:41.198Z,98661.94
2022-09-23T06:16:10.460Z,98664.91
2022-09-23T06:18:41.599Z,98657.28
2022-09-23T06:21:10.065Z,98650.00
2022-09-23T06:23:41.148Z,98647.16
2022-09-23T06:26:11.362Z,98649.69
2022-09-23T06:28:40.599Z,98659.31
2022-09-23T06:31:13.309Z,98671.72
2022-09-23T06:33:45.100Z,98676.91
2022-09-23T06:36:22.814Z,98692.72
2022-09-23T06:38:59.288Z,98683.47
2022-09-23T06:41:27.403Z,98679.28
2022-09-23T06:43:55.612Z,98666.47
2022-09-23T06:46:23.803Z,98674.63
2022-09-23T06:48:53.559Z,98676.22
2022-09-23T06:51:21.928Z,98667.50
2022-09-23T06:53:50.793Z,98663.00
2022-09-23T06:56:20.015Z,98671.75
2022-09-23T06:58:48.334Z,98670.22
2022-09-23T07:01:17.400Z,98673.03
2022-09-23T07:03:46.450Z,98664.50
2022-09-23T07:06:16.191Z,98665.63
2022-09-23T07:08:44.662Z,98666.53
2022-09-23T07:11:13.614Z,98667.84
2022-09-23T07:13:42.873Z,98660.75
2022-09-23T07:16:11.956Z,98658.56
2022-09-23T07:18:41.099Z,98661.00
2022-09-23T07:21:11.587Z,98664.69
2022-09-23T07:23:41.143Z,98667.06
2022-09-23T07:26:09.371Z,98666.00
2022-09-23T07:28:38.685Z,98665.19
2022-09-23T07:31:08.300Z,98663.28
2022-09-23T07:33:37.208Z,98660.88
2022-09-23T07:36:06.356Z,98656.75
2022-09-23T07:38:34.814Z,98656.13
2022-09-23T07:41:05.634Z,98662.59
2022-09-23T07:43:34.434Z,98657.09
2022-09-23T07:46:03.990Z,98655.66
2022-09-23T07:48:34.532Z,98666.47
2022-09-23T07:51:07.495Z,98660.38
2022-09-23T07:53:36.099Z,98653.72
2022-09-23T07:56:07.038Z,98649.13
2022-09-23T07:58:35.708Z,98653.09
2022-09-23T08:01:06.012Z,98653.41
2022-09-23T08:03:34.367Z,98644.28
2022-09-23T08:06:06.659Z,98652.47
2022-09-23T08:08:35.727Z,98649.31
2022-09-23T08:11:06.492Z,98644.59
2022-09-23T08:13:35.241Z,98639.25
2022-09-23T08:16:03.823Z,98644.69
2022-09-23T08:18:32.383Z,98638.38
2022-09-23T08:21:01.136Z,98630.88
2022-09-23T08:23:33.674Z,98633.25
2022-09-23T08:26:02.781Z,98637.50
2022-09-23T08:28:33.968Z,98626.13
2022-09-23T08:31:02.488Z,98632.53
2022-09-23T08:33:31.091Z,98632.53
2022-09-23T08:36:01.087Z,98634.03
2022-09-23T08:38:29.421Z,98632.63
2022-09-23T08:41:05.862Z,98636.47
2022-09-23T08:43:36.463Z,98640.88
2022-09-23T08:46:06.040Z,98635.88
2022-09-23T08:48:36.538Z,98634.56
2022-09-23T08:51:06.997Z,98640.31
2022-09-23T08:53:36.419Z,98644.03
2022-09-23T08:56:07.355Z,98652.09
2022-09-23T08:58:41.654Z,98652.31
2022-09-23T09:01:15.215Z,98671.50
2022-09-23T09:03:46.548Z,98642.34
2022-09-23T09:06:18.991Z,98665.16
2022-09-23T09:08:48.829Z,98658.44
2022-09-23T09:11:19.486Z,98659.97
2022-09-23T09:13:53.164Z,98648.38
2022-09-23T09:16:55.427Z,98638.97
2022-09-23T09:19:20.667Z,98632.72
2022-09-23T09:21:49.423Z,98632.19
2022-09-23T09:24:19.313Z,98633.06
2022-09-23T09:26:47.687Z,98620.97
2022-09-23T09:29:36.202Z,98620.63
2022-09-23T09:32:15.008Z,98611.78
2022-09-23T09:34:46.642Z,98601.75
2022-09-23T09:37:17.207Z,98606.47
2022-09-23T09:39:45.525Z,98602.19
2022-09-23T09:42:19.333Z,98605.75
2022-09-23T09:44:52.720Z,98616.84
2022-09-23T09:47:29.884Z,98618.59
2022-09-23T09:50:02.796Z,98622.25
2022-09-23T09:52:32.108Z,98621.88
2022-09-23T09:55:19.219Z,98621.47
2022-09-23T09:57:50.076Z,98619.25
2022-09-23T10:00:35.626Z,98623.41
2022-09-23T10:03:05.231Z,98624.84
2022-09-23T10:05:34.962Z,98612.09
2022-09-23T10:08:22.639Z,98625.75
2022-09-23T10:10:54.974Z,98623.47
2022-09-23T10:13:24.543Z,98623.03
2022-09-23T10:15:56.119Z,98628.16
2022-09-23T10:18:28.212Z,98630.31
2022-09-23T10:21:01.730Z,98620.88
2022-09-23T10:23:33.583Z,98619.19
2022-09-23T10:28:45.684Z,98613.50
2022-09-23T10:31:16.302Z,98629.88
2022-09-23T10:33:49.016Z,98633.06
2022-09-23T10:36:18.092Z,98621.75
2022-09-23T10:38:53.734Z,98617.06
2022-09-23T10:41:43.643Z,98599.25
2022-09-23T10:50:15.135Z,98589.75
2022-09-23T10:52:50.457Z,98594.69
2022-09-23T10:55:29.373Z,98590.75
2022-09-23T10:58:17.633Z,98588.56
2022-09-23T11:00:49.547Z,98582.44
2022-09-23T11:03:34.218Z,98586.22
2022-09-23T11:06:09.961Z,98582.03
2022-09-23T11:08:48.296Z,98576.06
2022-09-23T11:11:22.045Z,98572.06
2022-09-23T11:14:04.452Z,98563.59
2022-09-23T11:16:43.862Z,98567.47
2022-09-23T11:19:22.375Z,98557.81
2022-09-23T11:21:58.538Z,98551.88
2022-09-23T11:24:50.322Z,98551.59
2022-09-23T11:27:26.890Z,98564.47
2022-09-23T11:30:01.015Z,98558.16
2022-09-23T11:32:51.484Z,98561.69
2022-09-23T11:35:21.605Z,98559.53
2022-09-23T11:37:53.305Z,98546.50
2022-09-23T11:40:23.960Z,98552.41
2022-09-23T11:42:56.982Z,98555.41
2022-09-23T11:45:29.333Z,98550.84
2022-09-23T11:48:02.102Z,98542.56
2022-09-23T11:50:36.607Z,98539.13
2022-09-23T11:53:09.132Z,98543.97
2022-09-23T11:55:55.234Z,98550.91
2022-09-23T12:01:37.910Z,98571.06
2022-09-23T12:04:19.162Z,98562.28
2022-09-23T12:06:51.327Z,98547.66
2022-09-23T12:09:40.912Z,98537.69
2022-09-23T12:12:16.321Z,98553.59
2022-09-23T12:14:52.328Z,98575.53
2022-09-23T12:17:38.539Z,98558.13
2022-09-23T12:20:16.116Z,98565.41
2022-09-23T12:22:48.927Z,98558.66
2022-09-23T12:25:31.890Z,98550.97
2022-09-23T12:28:05.191Z,98544.47
2022-09-23T12:30:35.641Z,98544.66
2022-09-23T12:33:11.964Z,98546.41
2022-09-23T12:35:42.778Z,98539.63
2022-09-23T12:38:26.640Z,98547.03
2022-09-23T12:40:56.391Z,98535.06
2022-09-23T12:43:34.686Z,98530.91
2022-09-23T12:46:20.266Z,98525.16
2022-09-23T12:48:49.748Z,98517.03
2022-09-23T12:51:19.638Z,98515.34
2022-09-23T12:53:57.347Z,98515.66
2022-09-23T12:56:31.268Z,98521.97
2022-09-23T12:59:26.178Z,98517.06
2022-09-23T13:02:00.758Z,98515.84
2022-09-23T13:04:48.807Z,98510.56
2022-09-23T13:07:19.034Z,98510.59
2022-09-23T13:09:53.277Z,98512.69
2022-09-23T13:12:26.808Z,98508.66
2022-09-23T13:15:00.314Z,98511.31
2022-09-23T13:17:43.747Z,98509.41
2022-09-23T13:20:30.408Z,98511.59
2022-09-23T13:23:36.667Z,98508.66
2022-09-23T13:26:13.563Z,98501.72
2022-09-23T13:28:45.742Z,98501.78
2022-09-23T13:31:17.455Z,98496.59
2022-09-23T13:33:51.130Z,98485.91
2022-09-23T13:36:22.621Z,98499.91
2022-09-23T13:38:52.816Z,98499.56
2022-09-23T13:41:22.939Z,98498.66
2022-09-23T13:51:30.102Z,98485.31
2022-09-23T13:54:23.373Z,98488.81
2022-09-23T14:00:15.022Z,98486.63
2022-09-23T14:02:50.484Z,98488.03
2022-09-23T14:05:27.262Z,98480.63
2022-09-23T14:08:00.332Z,98485.50
2022-09-23T14:10:31.397Z,98485.50
2022-09-23T14:12:59.757Z,98479.34
2022-09-23T14:15:28.279Z,98468.69
2022-09-23T14:18:02.399Z,98466.31
2022-09-23T14:20:31.068Z,98460.50
2022-09-23T14:23:07.450Z,98455.91
2022-09-23T14:25:38.294Z,98439.34
2022-09-23T14:28:07.039Z,98450.19
2022-09-23T14:30:35.978Z,98452.25
2022-09-23T14:33:08.608Z,98456.47
2022-09-23T14:35:42.622Z,98456.44
2022-09-23T14:38:28.198Z,98463.47
2022-09-23T14:41:13.177Z,98459.84
2022-09-23T14:43:41.769Z,98455.09
2022-09-23T14:46:17.772Z,98452.91
2022-09-23T14:48:53.466Z,98445.19
2022-09-23T14:51:22.044Z,98453.34
2022-09-23T14:53:50.197Z,98455.09
2022-09-23T14:56:21.360Z,98451.38
2022-09-23T14:58:53.044Z,98445.28
2022-09-23T15:01:29.589Z,98427.66
2022-09-23T15:03:58.962Z,98432.63
2022-09-23T15:06:27.559Z,98434.31
2022-09-23T15:08:57.111Z,98427.72
2022-09-23T15:11:26.765Z,98432.28
2022-09-23T15:13:55.148Z,98426.03
2022-09-23T15:16:26.305Z,98426.44
2022-09-23T15:18:55.712Z,98428.09
2022-09-23T15:21:25.019Z,98428.69
2022-09-23T15:23:55.065Z,98436.84
2022-09-23T15:26:24.892Z,98435.75
2022-09-23T15:28:56.070Z,98433.91
2022-09-23T15:31:26.727Z,98429.13
2022-09-23T15:33:56.259Z,98434.81
2022-09-23T15:36:25.995Z,98434.09
2022-09-23T15:38:55.333Z,98422.69
2022-09-23T15:41:24.646Z,98442.19
2022-09-23T15:43:53.337Z,98443.22
2022-09-23T15:46:24.214Z,98435.78
2022-09-23T15:48:58.921Z,98437.88
2022-09-23T15:51:28.220Z,98430.03
2022-09-23T15:53:56.619Z,98428.44
2022-09-23T15:56:25.204Z,98423.31
2022-09-23T15:58:53.374Z,98425.47
2022-09-23T16:01:26.802Z,98435.31
2022-09-23T16:03:56.022Z,98400.94
2022-09-23T16:06:24.451Z,98429.31
2022-09-23T16:08:53.258Z,98429.13
2022-09-23T16:11:22.843Z,98421.56
2022-09-23T16:13:51.277Z,98417.81
2022-09-23T16:16:21.366Z,98418.41
2022-09-23T16:18:52.028Z,98425.78
2022-09-23T16:21:21.263Z,98420.97
2022-09-23T16:23:50.562Z,98414.34
2022-09-23T16:26:20.468Z,98407.66
2022-09-23T16:28:49.239Z,98416.22
2022-09-23T16:31:35.220Z,98418.09
2022-09-23T16:34:04.807Z,98425.06
2022-09-23T16:36:34.259Z,98424.56
2022-09-23T16:39:03.537Z,98419.03
2022-09-23T16:41:33.336Z,98420.72
2022-09-23T16:44:02.402Z,98379.72
2022-09-23T16:46:31.679Z,98401.69
2022-09-23T16:49:00.705Z,98401.22
2022-09-23T16:51:31.836Z,98393.84
2022-09-23T16:54:00.762Z,98396.69
2022-09-23T16:56:29.789Z,98384.97
2022-09-23T16:58:58.256Z,98391.75
2022-09-23T17:01:44.741Z,98387.25
2022-09-23T17:04:13.489Z,98378.97
2022-09-23T17:06:45.265Z,98379.28
2022-09-23T17:09:13.498Z,98369.94
2022-09-23T17:11:43.745Z,98377.84
2022-09-23T17:14:11.781Z,98371.53
2022-09-23T17:16:40.241Z,98377.66
2022-09-23T17:19:09.008Z,98369.09
2022-09-23T17:21:37.307Z,98372.34
2022-09-23T17:24:07.078Z,98367.56
2022-09-23T17:26:35.256Z,98369.13
2022-09-23T17:29:03.716Z,98363.91
2022-09-23T17:31:31.744Z,98362.88
2022-09-23T17:34:00.946Z,98350.34
2022-09-23T17:36:29.280Z,98352.16
2022-09-23T17:38:57.307Z,98354.91
2022-09-23T17:41:28.343Z,98354.91
2022-09-23T17:43:58.814Z,98350.47
2022-09-23T17:46:29.466Z,98345.50
2022-09-23T17:48:58.087Z,98350.25
2022-09-23T17:51:26.365Z,98352.41
2022-09-23T17:53:54.437Z,98352.88
2022-09-23T17:56:23.525Z,98348.72
2022-09-23T17:58:53.976Z,98347.44
2022-09-23T18:01:23.350Z,98355.41
2022-09-23T18:03:55.020Z,98343.50
2022-09-23T18:06:24.626Z,98346.94
2022-09-23T18:08:53.164Z,98346.56
2022-09-23T18:11:21.868Z,98342.84
2022-09-23T18:13:50.820Z,98342.59
2022-09-23T18:16:21.139Z,98334.59
2022-09-23T18:18:53.262Z,98332.69
2022-09-23T18:21:21.628Z,98331.09
2022-09-23T18:23:50.585Z,98337.59
2022-09-23T18:26:19.822Z,98326.97
2022-09-23T18:28:48.209Z,98323.22
2022-09-23T18:31:17.471Z,98319.56
2022-09-23T18:33:49.684Z,98312.66
2022-09-23T18:36:17.960Z,98317.34
2022-09-23T18:38:46.076Z,98303.84
2022-09-23T18:41:14.056Z,98308.09
2022-09-23T18:43:48.151Z,98307.19
2022-09-23T18:46:19.329Z,98305.03
2022-09-23T18:49:08.153Z,98300.97
2022-09-23T18:51:38.931Z,98298.31
2022-09-23T18:54:09.740Z,98303.84
2022-09-23T18:56:42.786Z,98303.56
2022-09-23T18:59:14.376Z,98304.72
2022-09-23T19:01:50.510Z,98299.31
2022-09-23T19:04:24.704Z,98292.13
2022-09-23T19:06:54.011Z,98296.25
2022-09-23T19:09:22.497Z,98286.47
2022-09-23T19:11:54.196Z,98288.59
2022-09-23T19:14:23.775Z,98281.66
2022-09-23T19:16:52.222Z,98277.16
2022-09-23T19:19:21.885Z,98280.22
2022-09-23T19:21:50.498Z,98280.69
2022-09-23T19:24:21.173Z,98280.91
2022-09-23T19:26:50.589Z,98273.50
2022-09-23T19:29:22.001Z,98282.97
2022-09-23T19:31:51.356Z,98280.91
2022-09-23T19:34:23.814Z,98275.00
2022-09-23T19:36:54.802Z,98280.19
2022-09-23T19:39:23.826Z,98267.97
2022-09-23T19:41:52.660Z,98262.16
2022-09-23T19:44:21.224Z,98261.69
2022-09-23T19:46:55.308Z,98265.63
2022-09-23T19:49:25.354Z,98257.16
2022-09-23T19:52:06.726Z,98251.84
2022-09-23T19:54:35.317Z,98242.00
2022-09-23T19:57:03.888Z,98239.63
2022-09-23T20:02:20.851Z,98227.91
2022-09-23T20:04:51.595Z,98230.56
2022-09-23T20:07:27.135Z,98227.03
2022-09-23T20:09:55.979Z,98219.06
2022-09-23T20:12:25.241Z,98216.50
2022-09-23T20:14:53.624Z,98212.00
2022-09-23T20:17:22.198Z,98206.47
2022-09-23T20:19:51.170Z,98210.81
2022-09-23T20:22:32.940Z,98206.59
2022-09-23T20:25:03.190Z,98204.28
2022-09-23T20:27:32.374Z,98202.13
2022-09-23T20:30:00.937Z,98194.06
2022-09-23T20:32:29.575Z,98193.28
2022-09-23T20:34:58.503Z,98188.06
2022-09-23T20:37:28.513Z,98184.50
2022-09-23T20:40:03.059Z,98177.81
2022-09-23T20:42:32.157Z,98176.84
2022-09-23T20:45:00.889Z,98179.00
2022-09-23T20:47:29.043Z,98166.44
2022-09-23T20:49:57.573Z,98162.78
2022-09-23T20:52:25.845Z,98155.81
2022-09-23T20:54:55.296Z,98158.97
2022-09-23T20:57:24.106Z,98161.03
2022-09-23T20:59:52.440Z,98158.88
2022-09-23T21:02:20.625Z,98150.00
2022-09-23T21:04:49.723Z,98145.28
2022-09-23T21:07:18.155Z,98144.50
2022-09-23T21:09:46.757Z,98145.00
2022-09-23T21:12:16.347Z,98135.13
2022-09-23T21:14:44.735Z,98135.81
2022-09-23T21:17:14.196Z,98135.81
2022-09-23T21:19:42.369Z,98129.31
2022-09-23T21:22:12.993Z,98126.75
2022-09-23T21:25:21.431Z,98118.03
2022-09-23T21:27:33.713Z,98118.88
2022-09-23T21:30:02.009Z,98110.63
2022-09-23T21:32:32.173Z,98117.28
2022-09-23T21:35:00.236Z,98112.19
2022-09-23T21:37:28.498Z,98094.28
2022-09-23T21:40:10.357Z,98101.16
2022-09-23T21:42:42.536Z,98102.16
2022-09-23T21:45:11.225Z,98098.50
2022-09-23T21:47:40.603Z,98098.06
2022-09-23T21:50:09.326Z,98088.81
2022-09-23T21:52:38.930Z,98083.72
2022-09-23T21:55:07.757Z,98087.19
2022-09-23T21:57:36.840Z,98086.91
2022-09-23T22:00:07.271Z,98078.84
2022-09-23T22:02:40.506Z,98071.75
2022-09-23T22:05:09.387Z,98064.47
2022-09-23T22:07:38.610Z,98076.28
2022-09-23T22:10:07.285Z,98060.16
2022-09-23T22:12:35.680Z,98055.72
2022-09-23T22:15:04.285Z,98048.31
2022-09-23T22:17:34.574Z,98052.84
2022-09-23T22:20:03.386Z,98042.72
2022-09-23T22:22:32.115Z,98041.44
2022-09-23T22:25:00.962Z,98032.78
2022-09-23T22:27:29.848Z,98031.41
2022-09-23T22:30:15.408Z,98026.97
2022-09-23T22:32:54.907Z,98020.59
2022-09-23T22:35:23.683Z,98010.84
2022-09-23T22:37:55.579Z,98006.84
2022-09-23T22:40:25.873Z,98009.00
2022-09-23T22:42:58.282Z,97999.28
2022-09-23T22:45:26.605Z,98003.19
2022-09-23T22:47:56.690Z,97997.41
2022-09-23T22:50:27.036Z,97991.91
2022-09-23T22:52:55.342Z,97984.22
2022-09-23T22:55:24.659Z,97991.91
2022-09-23T22:57:52.833Z,97986.59
2022-09-23T23:00:21.873Z,97985.59
2022-09-23T23:02:50.919Z,97976.38
2022-09-23T23:05:24.713Z,97970.88
2022-09-23T23:07:55.274Z,97969.41
2022-09-23T23:10:25.381Z,97968.03
2022-09-23T23:12:55.031Z,97960.66
2022-09-23T23:15:23.557Z,97955.84
2022-09-23T23:18:01.027Z,97951.72
2022-09-23T23:20:31.214Z,97951.31
2022-09-23T23:23:03.794Z,97943.59
2022-09-23T23:25:32.530Z,97941.91
2022-09-23T23:28:01.166Z,97943.97
2022-09-23T23:30:29.836Z,97937.69
2022-09-23T23:33:00.441Z,97935.72
2022-09-23T23:35:30.400Z,97938.19
2022-09-23T23:37:59.917Z,97922.34
2022-09-23T23:40:28.174Z,97915.47
2022-09-23T23:42:56.505Z,97920.88
2022-09-23T23:45:24.574Z,97902.13
2022-09-23T23:47:52.750Z,97904.88
2022-09-23T23:50:21.181Z,97896.53
2022-09-23T23:52:49.168Z,97893.00
2022-09-23T23:55:18.907Z,97888.59
2022-09-23T23:57:46.975Z,97888.19
